| time (UTC) | temp C | wind direction | speed KPH | gust KPH | rain 1hr cm | rain 24hr cm | rain mn cm | humidity % | barometer mb |
| 20260507061048 | 10 | 0 | 0.0 | 1.6 | 0.25 | 1.22 | 0.51 | 98 | 1011.2 |
| 20260507060550 | 10 | 0 | 0.0 | 1.6 | 0.28 | 1.22 | 0.51 | 97 | 1011.3 |
| 20260507060104 | 10 | 0 | 0.0 | 1.6 | 0.30 | 1.19 | 0.48 | 97 | 1011.2 |
| 20260507055550 | 10 | 0 | 0.0 | 1.6 | 0.36 | 1.19 | 0.48 | 97 | 1011.2 |
| 20260507055050 | 10 | 0 | 0.0 | 3.2 | 0.33 | 1.17 | 0.46 | 97 | 1011.2 |
| 20260507054556 | 10 | 0 | 0.0 | 3.2 | 0.33 | 1.17 | 0.46 | 97 | 1011.0 |
| 20260507054050 | 10 | 352 | 0.0 | 1.6 | 0.33 | 1.17 | 0.46 | 97 | 1010.9 |
| 20260507053551 | 10 | 0 | 0.0 | 3.2 | 0.33 | 1.14 | 0.43 | 97 | 1011.3 |
| 20260507053059 | 10 | 0 | 0.0 | 3.2 | 0.36 | 1.14 | 0.43 | 97 | 1011.5 |
| 20260507052554 | 10 | 352 | 0.0 | 4.8 | 0.36 | 1.12 | 0.41 | 97 | 1011.3 |
| 20260507052051 | 10 | 5 | 0.0 | 9.7 | 0.30 | 1.07 | 0.36 | 96 | 1011.6 |
| 20260507051552 | 10 | 31 | 0.0 | 9.7 | 0.28 | 1.02 | 0.30 | 96 | 1011.4 |
| 20260507051050 | 11 | 5 | 1.6 | 8.0 | 0.23 | 0.97 | 0.25 | 96 | 1011.6 |
| 20260507050547 | 11 | 15 | 0.0 | 4.8 | 0.20 | 0.94 | 0.23 | 96 | 1011.6 |
| 20260507050055 | 11 | 0 | 0.0 | 1.6 | 0.18 | 0.89 | 0.18 | 96 | 1011.4 |
| 20260507045554 | 11 | 0 | 0.0 | 1.6 | 0.18 | 0.84 | 0.13 | 96 | 1011.3 |
| 20260507045051 | 11 | 0 | 0.0 | 1.6 | 0.20 | 0.84 | 0.13 | 96 | 1011.4 |
| 20260507044601 | 11 | 0 | 0.0 | 1.6 | 0.20 | 0.84 | 0.13 | 95 | 1011.1 |
| 20260507044051 | 11 | 0 | 0.0 | 1.6 | 0.20 | 0.84 | 0.13 | 95 | 1010.9 |
| 20260507043551 | 11 | 0 | 0.0 | 1.6 | 0.18 | 0.81 | 0.10 | 95 | 1011.0 |
| 20260507043056 | 11 | 0 | 0.0 | 4.8 | 0.15 | 0.79 | 0.08 | 94 | 1011.1 |
| 20260507042552 | 11 | 0 | 0.0 | 4.8 | 0.13 | 0.76 | 0.05 | 94 | 1011.1 |
| 20260507042050 | 11 | 5 | 0.0 | 1.6 | 0.13 | 0.76 | 0.05 | 93 | 1010.8 |
| 20260507041553 | 11 | 0 | 0.0 | 3.2 | 0.10 | 0.74 | 0.03 | 92 | 1010.9 |
| 20260507041050 | 11 | 0 | 0.0 | 3.2 | 0.10 | 0.74 | 0.03 | 92 | 1010.9 |
| 20260507040550 | 12 | 352 | 0.0 | 9.7 | 0.10 | 0.74 | 0.03 | 90 | 1010.7 |
| 20260507040055 | 12 | 347 | 1.6 | 14.5 | 0.08 | 0.71 | 0.00 | 88 | 1010.6 |
| 20260507035551 | 12 | 352 | 1.6 | 16.1 | 0.03 | 0.66 | 0.66 | 86 | 1010.8 |
| 20260507035051 | 13 | 344 | 3.2 | 22.5 | 0.00 | 0.64 | 0.64 | 85 | 1010.7 |
| 20260507034613 | 13 | 0 | 3.2 | 22.5 | 0.00 | 0.64 | 0.64 | 85 | 1010.7 |
| 20260507034050 | 13 | 24 | 3.2 | 22.5 | 0.00 | 0.64 | 0.64 | 84 | 1010.5 |
| 20260507033552 | 13 | 0 | 1.6 | 8.0 | 0.00 | 0.64 | 0.64 | 86 | 1010.3 |
| 20260507033055 | 13 | 0 | 1.6 | 17.7 | 0.00 | 0.64 | 0.64 | 86 | 1010.6 |
| 20260507032555 | 13 | 28 | 1.6 | 17.7 | 0.00 | 0.64 | 0.64 | 85 | 1010.4 |
| 20260507032051 | 13 | 349 | 1.6 | 17.7 | 0.00 | 0.64 | 0.64 | 85 | 1010.5 |
| 20260507031554 | 13 | 40 | 1.6 | 12.9 | 0.00 | 0.64 | 0.64 | 85 | 1010.5 |
| 20260507031050 | 13 | 346 | 1.6 | 12.9 | 0.00 | 0.64 | 0.64 | 85 | 1010.7 |
| 20260507030553 | 13 | 333 | 0.0 | 8.0 | 0.00 | 0.64 | 0.64 | 86 | 1010.3 |
| 20260507030101 | 14 | 0 | 0.0 | 14.5 | 0.00 | 0.64 | 0.64 | 86 | 1010.3 |
| 20260507025550 | 14 | 352 | 1.6 | 14.5 | 0.00 | 0.64 | 0.64 | 86 | 1010.4 |
| 20260507025052 | 14 | 0 | 3.2 | 16.1 | 0.00 | 0.64 | 0.64 | 87 | 1010.3 |
| 20260507024556 | 14 | 11 | 1.6 | 19.3 | 0.00 | 0.64 | 0.64 | 86 | 1010.3 |
| 20260507024051 | 15 | 340 | 4.8 | 19.3 | 0.03 | 0.64 | 0.64 | 87 | 1010.3 |
| 20260507023551 | 15 | 360 | 1.6 | 9.7 | 0.03 | 0.64 | 0.64 | 87 | 1009.9 |
| 20260507023054 | 15 | 360 | 0.0 | 6.4 | 0.03 | 0.64 | 0.64 | 87 | 1009.9 |
| 20260507022551 | 15 | 13 | 0.0 | 6.4 | 0.03 | 0.64 | 0.64 | 87 | 1010.1 |
| 20260507022051 | 14 | 24 | 0.0 | 6.4 | 0.03 | 0.64 | 0.64 | 89 | 1009.9 |
| 20260507021551 | 14 | 0 | 0.0 | 4.8 | 0.03 | 0.64 | 0.64 | 89 | 1009.9 |
| 20260507021051 | 14 | 0 | 0.0 | 4.8 | 0.03 | 0.64 | 0.64 | 90 | 1009.9 |
| 20260507020551 | 14 | 0 | 0.0 | 4.8 | 0.03 | 0.64 | 0.64 | 90 | 1010.1 |
| 20260507020053 | 15 | 0 | 0.0 | 4.8 | 0.03 | 0.64 | 0.64 | 89 | 1010.0 |
| 20260507015551 | 15 | 342 | 0.0 | 6.4 | 0.03 | 0.64 | 0.64 | 89 | 1010.2 |
| 20260507015051 | 15 | 0 | 0.0 | 6.4 | 0.03 | 0.64 | 0.64 | 87 | 1010.2 |
| 20260507014554 | 15 | 0 | 0.0 | 3.2 | 0.03 | 0.64 | 0.64 | 86 | 1010.1 |
| 20260507014051 | 15 | 18 | 0.0 | 11.3 | 0.00 | 0.61 | 0.61 | 85 | 1010.3 |
| 20260507013551 | 15 | 0 | 0.0 | 11.3 | 0.00 | 0.61 | 0.61 | 84 | 1010.3 |
| 20260507013100 | 15 | 0 | 0.0 | 11.3 | 0.03 | 0.61 | 0.61 | 85 | 1010.4 |
| 20260507012550 | 15 | 0 | 0.0 | 8.0 | 0.03 | 0.61 | 0.61 | 86 | 1010.2 |
| 20260507012052 | 16 | 21 | 0.0 | 8.0 | 0.03 | 0.61 | 0.61 | 89 | 1010.2 |
| 20260507011557 | 16 | 0 | 0.0 | 4.8 | 0.03 | 0.61 | 0.61 | 89 | 1010.1 |
| 20260507011052 | 16 | 287 | 0.0 | 6.4 | 0.03 | 0.61 | 0.61 | 89 | 1009.9 |
| 20260507010617 | 16 | 0 | 0.0 | 6.4 | 0.03 | 0.61 | 0.61 | 90 | 1009.9 |
| 20260507010052 | 16 | 307 | 0.0 | 3.2 | 0.03 | 0.61 | 0.61 | 90 | 1009.9 |
| 20260507005551 | 16 | 13 | 0.0 | 11.3 | 0.03 | 0.61 | 0.61 | 90 | 1009.5 |
| 20260507005051 | 16 | 0 | 0.0 | 11.3 | 0.03 | 0.61 | 0.61 | 90 | 1009.5 |
| 20260507004556 | 16 | 14 | 0.0 | 9.7 | 0.03 | 0.61 | 0.61 | 89 | 1009.4 |
| 20260507004052 | 16 | 338 | 0.0 | 8.0 | 0.03 | 0.61 | 0.61 | 88 | 1009.5 |
| 20260507003552 | 17 | 24 | 0.0 | 14.5 | 0.03 | 0.61 | 0.61 | 88 | 1009.4 |
| 20260507003053 | 17 | 337 | 1.6 | 14.5 | 0.00 | 0.58 | 0.58 | 87 | 1009.5 |
| 20260507002550 | 17 | 15 | 0.0 | 9.7 | 0.00 | 0.58 | 0.58 | 88 | 1009.4 |
| 20260507002049 | 18 | 304 | 1.6 | 11.3 | 0.00 | 0.58 | 0.58 | 91 | 1009.2 |
| 20260507001551 | 18 | 0 | 1.6 | 11.3 | 0.00 | 0.58 | 0.58 | 91 | 1008.9 |
| 20260507001050 | 18 | 0 | 0.0 | 6.4 | 0.00 | 0.58 | 0.58 | 91 | 1008.7 |
| 20260507000551 | 18 | 288 | 0.0 | 6.4 | 0.00 | 0.58 | 0.58 | 92 | 1008.5 |
| 20260507000054 | 18 | 0 | 0.0 | 6.4 | 0.00 | 0.58 | 0.58 | 92 | 1008.2 |
| 20260506235549 | 18 | 0 | 0.0 | 3.2 | 0.03 | 0.58 | 0.58 | 92 | 1008.3 |
| 20260506235052 | 18 | 0 | 0.0 | 4.8 | 0.03 | 0.58 | 0.58 | 92 | 1008.2 |
| 20260506234555 | 18 | 0 | 0.0 | 4.8 | 0.03 | 0.58 | 0.58 | 92 | 1008.0 |
| 20260506234051 | 18 | 0 | 0.0 | 3.2 | 0.03 | 0.58 | 0.58 | 92 | 1008.2 |
| 20260506233548 | 18 | 0 | 0.0 | 3.2 | 0.03 | 0.58 | 0.58 | 91 | 1008.1 |
| 20260506233052 | 18 | 0 | 0.0 | 3.2 | 0.03 | 0.58 | 0.58 | 91 | 1008.2 |
| 20260506232551 | 18 | 0 | 0.0 | 3.2 | 0.03 | 0.58 | 0.58 | 91 | 1008.2 |
| 20260506232048 | 18 | 0 | 0.0 | 3.2 | 0.03 | 0.58 | 0.58 | 91 | 1008.2 |
| 20260506231551 | 18 | 0 | 0.0 | 3.2 | 0.03 | 0.58 | 0.58 | 90 | 1008.1 |
| 20260506231049 | 18 | 0 | 0.0 | 6.4 | 0.03 | 0.58 | 0.58 | 90 | 1008.1 |
| 20260506230549 | 18 | 0 | 0.0 | 6.4 | 0.03 | 0.58 | 0.58 | 89 | 1008.1 |
| 20260506230055 | 18 | 286 | 0.0 | 1.6 | 0.03 | 0.58 | 0.58 | 88 | 1008.0 |
| 20260506225551 | 18 | 0 | 0.0 | 1.6 | 0.00 | 0.56 | 0.56 | 88 | 1008.1 |
| 20260506225048 | 19 | 0 | 0.0 | 1.6 | 0.00 | 0.56 | 0.56 | 88 | 1008.0 |
| 20260506224603 | 19 | 0 | 0.0 | 3.2 | 0.00 | 0.56 | 0.56 | 87 | 1008.1 |
| 20260506224048 | 19 | 0 | 0.0 | 4.8 | 0.00 | 0.56 | 0.56 | 87 | 1008.0 |
| 20260506223548 | 19 | 0 | 0.0 | 4.8 | 0.00 | 0.56 | 0.56 | 87 | 1008.0 |
| 20260506223055 | 19 | 0 | 0.0 | 3.2 | 0.00 | 0.56 | 0.56 | 86 | 1008.0 |
| 20260506222552 | 19 | 0 | 0.0 | 4.8 | 0.00 | 0.56 | 0.56 | 86 | 1008.0 |
| 20260506222049 | 19 | 273 | 0.0 | 9.7 | 0.00 | 0.56 | 0.56 | 85 | 1008.1 |
| 20260506221554 | 19 | 0 | 1.6 | 9.7 | 0.00 | 0.56 | 0.56 | 85 | 1008.1 |
| 20260506221048 | 19 | 0 | 0.0 | 4.8 | 0.00 | 0.56 | 0.56 | 85 | 1007.9 |
| 20260506220552 | 19 | 0 | 0.0 | 4.8 | 0.00 | 0.56 | 0.56 | 85 | 1007.8 |
| 20260506220055 | 19 | 0 | 0.0 | 4.8 | 0.00 | 0.56 | 0.56 | 84 | 1007.6 |
| 20260506215550 | 19 | 257 | 0.0 | 6.4 | 0.00 | 0.56 | 0.56 | 85 | 1007.6 |
| 20260506215048 | 20 | 218 | 0.0 | 6.4 | 0.00 | 0.56 | 0.56 | 84 | 1007.5 |
| 20260506214607 | 20 | 0 | 1.6 | 6.4 | 0.00 | 0.56 | 0.56 | 83 | 1007.6 |
| 20260506214049 | 20 | 210 | 1.6 | 6.4 | 0.00 | 0.56 | 0.56 | 83 | 1007.6 |
| 20260506213551 | 20 | 0 | 0.0 | 6.4 | 0.00 | 0.56 | 0.56 | 82 | 1007.6 |
| 20260506213053 | 20 | 0 | 1.6 | 8.0 | 0.00 | 0.56 | 0.56 | 82 | 1007.6 |
| 20260506212551 | 20 | 0 | 0.0 | 14.5 | 0.00 | 0.56 | 0.56 | 82 | 1007.5 |
| 20260506212050 | 20 | 0 | 0.0 | 14.5 | 0.00 | 0.56 | 0.56 | 83 | 1007.2 |
| 20260506211552 | 20 | 266 | 0.0 | 14.5 | 0.00 | 0.56 | 0.56 | 82 | 1007.2 |
| 20260506211048 | 20 | 277 | 1.6 | 14.5 | 0.00 | 0.56 | 0.56 | 81 | 1007.3 |
| 20260506210550 | 20 | 252 | 3.2 | 14.5 | 0.00 | 0.56 | 0.56 | 80 | 1007.2 |
| 20260506210057 | 20 | 224 | 1.6 | 11.3 | 0.00 | 0.56 | 0.56 | 82 | 1007.0 |
| 20260506205550 | 20 | 223 | 1.6 | 9.7 | 0.00 | 0.56 | 0.56 | 82 | 1006.9 |
| 20260506205052 | 20 | 280 | 0.0 | 9.7 | 0.00 | 0.56 | 0.56 | 82 | 1007.0 |
| 20260506204610 | 20 | 222 | 1.6 | 9.7 | 0.00 | 0.56 | 0.56 | 82 | 1007.0 |
| 20260506204047 | 20 | 0 | 0.0 | 11.3 | 0.00 | 0.56 | 0.56 | 83 | 1007.0 |
| 20260506203548 | 20 | 290 | 1.6 | 14.5 | 0.00 | 0.56 | 0.56 | 83 | 1007.0 |
| 20260506203056 | 20 | 275 | 3.2 | 14.5 | 0.00 | 0.56 | 0.56 | 82 | 1007.1 |
| 20260506202551 | 20 | 209 | 3.2 | 12.9 | 0.00 | 0.56 | 0.56 | 83 | 1007.1 |
| 20260506202051 | 20 | 248 | 0.0 | 6.4 | 0.00 | 0.56 | 0.56 | 83 | 1007.1 |
| 20260506201558 | 20 | 0 | 0.0 | 4.8 | 0.00 | 0.56 | 0.56 | 84 | 1007.1 |
| 20260506201052 | 19 | 0 | 0.0 | 4.8 | 0.00 | 0.56 | 0.56 | 84 | 1007.0 |
| 20260506200551 | 19 | 0 | 0.0 | 6.4 | 0.00 | 0.56 | 0.56 | 84 | 1007.2 |
| 20260506200052 | 19 | 294 | 1.6 | 11.3 | 0.00 | 0.56 | 0.56 | 84 | 1007.3 |
| 20260506195551 | 19 | 259 | 1.6 | 11.3 | 0.00 | 0.56 | 0.56 | 84 | 1007.2 |
| 20260506195054 | 19 | 254 | 1.6 | 12.9 | 0.00 | 0.56 | 0.56 | 84 | 1007.2 |
| 20260506194606 | 19 | 250 | 1.6 | 12.9 | 0.00 | 0.56 | 0.56 | 84 | 1007.3 |
| 20260506194051 | 19 | 204 | 1.6 | 9.7 | 0.00 | 0.56 | 0.56 | 83 | 1007.3 |
| 20260506193551 | 19 | 0 | 0.0 | 16.1 | 0.00 | 0.56 | 0.56 | 84 | 1007.3 |
| 20260506193057 | 19 | 0 | 3.2 | 16.1 | 0.00 | 0.56 | 0.56 | 86 | 1007.4 |
| 20260506192550 | 18 | 0 | 3.2 | 16.1 | 0.00 | 0.56 | 0.56 | 85 | 1007.3 |
| 20260506192050 | 18 | 236 | 1.6 | 17.7 | 0.00 | 0.56 | 0.56 | 86 | 1007.4 |
| 20260506191554 | 18 | 232 | 3.2 | 17.7 | 0.00 | 0.56 | 0.56 | 86 | 1007.4 |
| 20260506191052 | 18 | 227 | 1.6 | 16.1 | 0.00 | 0.56 | 0.56 | 87 | 1007.5 |
| 20260506190551 | 18 | 252 | 0.0 | 12.9 | 0.00 | 0.56 | 0.56 | 87 | 1007.4 |
| 20260506190053 | 18 | 269 | 1.6 | 19.3 | 0.00 | 0.56 | 0.56 | 87 | 1007.5 |
| 20260506185623 | 18 | 194 | 3.2 | 19.3 | 0.00 | 0.56 | 0.56 | 87 | 1007.5 |
| 20260506185050 | 18 | 225 | 0.0 | 17.7 | 0.00 | 0.56 | 0.56 | 86 | 1007.5 |
| 20260506184557 | 18 | 203 | 1.6 | 12.9 | 0.00 | 0.56 | 0.56 | 87 | 1007.5 |
| 20260506184051 | 18 | 226 | 0.0 | 9.7 | 0.00 | 0.56 | 0.56 | 89 | 1007.6 |
| 20260506183552 | 18 | 186 | 0.0 | 9.7 | 0.00 | 0.56 | 0.56 | 90 | 1007.6 |
| 20260506183106 | 17 | 251 | 1.6 | 14.5 | 0.00 | 0.56 | 0.56 | 91 | 1007.7 |
| 20260506182550 | 17 | 0 | 0.0 | 14.5 | 0.00 | 0.56 | 0.56 | 91 | 1007.7 |
| 20260506182051 | 17 | 223 | 1.6 | 14.5 | 0.00 | 0.56 | 0.56 | 92 | 1007.9 |
| 20260506181551 | 17 | 237 | 0.0 | 9.7 | 0.00 | 0.56 | 0.56 | 92 | 1008.0 |
| 20260506181051 | 17 | 206 | 1.6 | 9.7 | 0.00 | 0.56 | 0.56 | 93 | 1008.1 |
| 20260506180551 | 16 | 0 | 0.0 | 8.0 | 0.00 | 0.56 | 0.56 | 93 | 1008.1 |
| 20260506180054 | 16 | 0 | 0.0 | 11.3 | 0.00 | 0.56 | 0.56 | 93 | 1008.1 |
| 20260506175549 | 16 | 0 | 1.6 | 11.3 | 0.00 | 0.56 | 0.56 | 93 | 1008.2 |
| 20260506175051 | 16 | 217 | 1.6 | 12.9 | 0.00 | 0.56 | 0.56 | 93 | 1008.2 |
| 20260506174556 | 16 | 213 | 1.6 | 12.9 | 0.00 | 0.56 | 0.56 | 93 | 1008.3 |
| 20260506174050 | 16 | 223 | 1.6 | 9.7 | 0.00 | 0.56 | 0.56 | 93 | 1008.4 |
| 20260506173551 | 16 | 200 | 0.0 | 16.1 | 0.00 | 0.56 | 0.56 | 94 | 1008.3 |
| 20260506173054 | 16 | 221 | 1.6 | 16.1 | 0.00 | 0.56 | 0.56 | 93 | 1008.1 |
| 20260506172548 | 16 | 233 | 0.0 | 16.1 | 0.00 | 0.56 | 0.56 | 94 | 1008.2 |
| 20260506172048 | 16 | 213 | 1.6 | 16.1 | 0.00 | 0.56 | 0.56 | 94 | 1008.1 |
| 20260506171558 | 16 | 254 | 3.2 | 14.5 | 0.00 | 0.56 | 0.56 | 94 | 1008.1 |
| 20260506171048 | 16 | 210 | 0.0 | 12.9 | 0.00 | 0.56 | 0.56 | 95 | 1008.2 |
| 20260506170548 | 16 | 147 | 1.6 | 12.9 | 0.00 | 0.56 | 0.56 | 95 | 1008.1 |
| 20260506170107 | 16 | 217 | 1.6 | 12.9 | 0.00 | 0.56 | 0.56 | 95 | 1008.0 |
| 20260506165550 | 16 | 180 | 1.6 | 11.3 | 0.00 | 0.56 | 0.56 | 96 | 1007.9 |
| 20260506165048 | 16 | 0 | 0.0 | 11.3 | 0.00 | 0.56 | 0.56 | 96 | 1008.0 |
| 20260506164600 | 16 | 142 | 0.0 | 12.9 | 0.00 | 0.56 | 0.56 | 96 | 1008.0 |
| 20260506164050 | 16 | 214 | 1.6 | 22.5 | 0.03 | 0.56 | 0.56 | 96 | 1007.9 |
| 20260506163550 | 16 | 194 | 1.6 | 22.5 | 0.03 | 0.56 | 0.56 | 96 | 1008.1 |
| 20260506163100 | 15 | 189 | 1.6 | 16.1 | 0.03 | 0.56 | 0.56 | 96 | 1008.1 |
| 20260506162548 | 16 | 186 | 1.6 | 19.3 | 0.05 | 0.56 | 0.56 | 96 | 1008.1 |
| 20260506162051 | 16 | 203 | 1.6 | 19.3 | 0.05 | 0.56 | 0.56 | 96 | 1008.3 |
| 20260506161604 | 16 | 185 | 0.0 | 8.0 | 0.08 | 0.56 | 0.56 | 96 | 1008.5 |
| 20260506161052 | 16 | 238 | 1.6 | 8.0 | 0.10 | 0.56 | 0.56 | 96 | 1008.4 |
| 20260506160550 | 16 | 0 | 1.6 | 16.1 | 0.10 | 0.56 | 0.56 | 96 | 1008.2 |
| 20260506160055 | 16 | 192 | 1.6 | 16.1 | 0.13 | 0.56 | 0.56 | 96 | 1008.3 |
| 20260506155548 | 16 | 196 | 1.6 | 16.1 | 0.15 | 0.56 | 0.56 | 96 | 1008.1 |
| 20260506155052 | 16 | 185 | 1.6 | 12.9 | 0.15 | 0.56 | 0.56 | 97 | 1007.9 |
| 20260506154610 | 16 | 190 | 1.6 | 12.9 | 0.18 | 0.56 | 0.56 | 96 | 1007.9 |
| 20260506154051 | 16 | 0 | 1.6 | 12.9 | 0.18 | 0.53 | 0.53 | 96 | 1007.7 |
| 20260506153551 | 16 | 211 | 0.0 | 11.3 | 0.18 | 0.53 | 0.53 | 96 | 1007.9 |
| 20260506153100 | 16 | 0 | 0.0 | 11.3 | 0.18 | 0.51 | 0.51 | 96 | 1008.1 |
| 20260506152552 | 16 | 0 | 1.6 | 11.3 | 0.18 | 0.51 | 0.51 | 96 | 1008.5 |
| 20260506152052 | 16 | 163 | 1.6 | 6.4 | 0.20 | 0.51 | 0.51 | 96 | 1008.9 |
| 20260506151558 | 15 | 183 | 0.0 | 4.8 | 0.18 | 0.48 | 0.48 | 96 | 1009.0 |
| 20260506151051 | 15 | 192 | 0.0 | 11.3 | 0.15 | 0.46 | 0.46 | 96 | 1009.0 |
| 20260506150551 | 15 | 234 | 0.0 | 11.3 | 0.18 | 0.46 | 0.46 | 96 | 1009.1 |
| 20260506150054 | 15 | 0 | 1.6 | 11.3 | 0.20 | 0.43 | 0.43 | 96 | 1009.1 |
| 20260506145554 | 15 | 199 | 1.6 | 11.3 | 0.20 | 0.41 | 0.41 | 95 | 1009.1 |
| 20260506145052 | 15 | 202 | 0.0 | 9.7 | 0.23 | 0.41 | 0.41 | 95 | 1009.3 |
| 20260506144602 | 16 | 233 | 1.6 | 12.9 | 0.23 | 0.38 | 0.38 | 95 | 1009.4 |
| 20260506144052 | 16 | 232 | 1.6 | 12.9 | 0.23 | 0.36 | 0.36 | 95 | 1009.1 |
| 20260506143552 | 16 | 0 | 1.6 | 11.3 | 0.25 | 0.36 | 0.36 | 95 | 1008.9 |
| 20260506143056 | 16 | 0 | 1.6 | 11.3 | 0.23 | 0.33 | 0.33 | 95 | 1008.8 |
| 20260506142552 | 16 | 0 | 1.6 | 17.7 | 0.25 | 0.33 | 0.33 | 95 | 1008.8 |
| 20260506142051 | 16 | 0 | 1.6 | 17.7 | 0.23 | 0.30 | 0.30 | 95 | 1008.8 |
| 20260506141602 | 16 | 180 | 1.6 | 16.1 | 0.23 | 0.30 | 0.30 | 94 | 1008.7 |
| 20260506141054 | 16 | 195 | 1.6 | 12.9 | 0.23 | 0.30 | 0.30 | 94 | 1008.8 |
| 20260506140551 | 16 | 210 | 0.0 | 12.9 | 0.23 | 0.28 | 0.28 | 93 | 1008.7 |
| 20260506140112 | 16 | 218 | 0.0 | 4.8 | 0.18 | 0.23 | 0.23 | 93 | 1008.7 |
| 20260506135552 | 16 | 206 | 0.0 | 11.3 | 0.15 | 0.20 | 0.20 | 92 | 1008.8 |
| 20260506135051 | 16 | 173 | 0.0 | 12.9 | 0.13 | 0.15 | 0.15 | 91 | 1008.8 |
| 20260506134557 | 16 | 194 | 0.0 | 12.9 | 0.13 | 0.15 | 0.15 | 91 | 1008.8 |
| 20260506134053 | 16 | 221 | 1.6 | 12.9 | 0.10 | 0.13 | 0.13 | 91 | 1008.9 |
| 20260506133551 | 16 | 198 | 1.6 | 11.3 | 0.08 | 0.10 | 0.10 | 90 | 1008.8 |
| 20260506133102 | 16 | 232 | 0.0 | 8.0 | 0.08 | 0.10 | 0.10 | 90 | 1008.8 |
| 20260506132550 | 16 | 155 | 0.0 | 6.4 | 0.08 | 0.08 | 0.08 | 90 | 1008.8 |
| 20260506132052 | 16 | 0 | 0.0 | 3.2 | 0.08 | 0.08 | 0.08 | 89 | 1008.8 |
| 20260506131555 | 16 | 0 | 0.0 | 4.8 | 0.08 | 0.08 | 0.08 | 89 | 1008.7 |
| 20260506131054 | 16 | 0 | 0.0 | 4.8 | 0.08 | 0.08 | 0.08 | 89 | 1008.8 |
| 20260506130552 | 16 | 0 | 0.0 | 9.7 | 0.05 | 0.05 | 0.05 | 87 | 1008.8 |
| 20260506130053 | 16 | 0 | 0.0 | 9.7 | 0.05 | 0.05 | 0.05 | 87 | 1009.1 |
| 20260506125552 | 17 | 209 | 0.0 | 4.8 | 0.05 | 0.05 | 0.05 | 86 | 1009.0 |
| 20260506125051 | 17 | 0 | 0.0 | 6.4 | 0.03 | 0.03 | 0.03 | 86 | 1009.1 |
| 20260506124556 | 17 | 0 | 0.0 | 6.4 | 0.03 | 0.03 | 0.03 | 85 | 1009.1 |
| 20260506124051 | 17 | 232 | 0.0 | 3.2 | 0.03 | 0.03 | 0.03 | 86 | 1009.2 |
| 20260506123554 | 17 | 0 | 0.0 | 3.2 | 0.03 | 0.03 | 0.03 | 85 | 1009.1 |
| 20260506123052 | 17 | 198 | 0.0 | 3.2 | 0.03 | 0.03 | 0.03 | 84 | 1009.2 |
| 20260506122551 | 17 | 0 | 0.0 | 3.2 | 0.00 | 0.00 | 0.00 | 84 | 1009.3 |
| 20260506122050 | 17 | 226 | 0.0 | 4.8 | 0.00 | 0.00 | 0.00 | 84 | 1009.4 |
| 20260506121553 | 17 | 185 | 0.0 | 4.8 | 0.00 | 0.00 | 0.00 | 83 | 1009.4 |
| 20260506121051 | 17 | 0 | 0.0 | 3.2 | 0.00 | 0.00 | 0.00 | 83 | 1009.3 |
| 20260506120551 | 17 | 0 | 0.0 | 3.2 | 0.00 | 0.00 | 0.00 | 83 | 1009.2 |
| 20260506120052 | 17 | 171 | 0.0 | 8.0 | 0.00 | 0.00 | 0.00 | 83 | 1009.0 |
| 20260506115550 | 17 | 178 | 0.0 | 8.0 | 0.00 | 0.00 | 0.00 | 82 | 1009.0 |
| 20260506115051 | 17 | 0 | 0.0 | 8.0 | 0.00 | 0.00 | 0.00 | 81 | 1008.9 |
| 20260506114558 | 17 | 184 | 0.0 | 6.4 | 0.00 | 0.00 | 0.00 | 80 | 1008.7 |
| 20260506114051 | 17 | 234 | 0.0 | 6.4 | 0.00 | 0.00 | 0.00 | 80 | 1008.8 |
| 20260506113551 | 17 | 0 | 0.0 | 4.8 | 0.00 | 0.00 | 0.00 | 79 | 1008.6 |
| 20260506113059 | 17 | 185 | 0.0 | 4.8 | 0.00 | 0.00 | 0.00 | 80 | 1008.8 |
| 20260506112552 | 18 | 198 | 0.0 | 4.8 | 0.00 | 0.00 | 0.00 | 80 | 1008.8 |
| 20260506112052 | 18 | 217 | 0.0 | 6.4 | 0.00 | 0.00 | 0.00 | 79 | 1008.8 |
| 20260506111552 | 18 | 0 | 0.0 | 11.3 | 0.00 | 0.00 | 0.00 | 79 | 1008.6 |
| 20260506111051 | 18 | 233 | 0.0 | 11.3 | 0.00 | 0.00 | 0.00 | 78 | 1008.5 |
| 20260506110553 | 18 | 214 | 1.6 | 12.9 | 0.00 | 0.00 | 0.00 | 77 | 1008.5 |
| 20260506110058 | 18 | 219 | 1.6 | 12.9 | 0.00 | 0.00 | 0.00 | 77 | 1008.4 |
| 20260506105553 | 18 | 0 | 1.6 | 12.9 | 0.00 | 0.00 | 0.00 | 77 | 1008.3 |
| 20260506105050 | 18 | 0 | 0.0 | 11.3 | 0.00 | 0.00 | 0.00 | 77 | 1008.3 |
| 20260506104558 | 18 | 241 | 0.0 | 16.1 | 0.00 | 0.00 | 0.00 | 77 | 1008.3 |
| 20260506104050 | 18 | 194 | 1.6 | 17.7 | 0.00 | 0.00 | 0.00 | 77 | 1008.3 |
| 20260506103551 | 18 | 169 | 1.6 | 17.7 | 0.00 | 0.00 | 0.00 | 76 | 1008.3 |
| 20260506103100 | 18 | 0 | 1.6 | 16.1 | 0.00 | 0.00 | 0.00 | 76 | 1008.2 |
| 20260506102551 | 18 | 158 | 1.6 | 12.9 | 0.00 | 0.00 | 0.00 | 76 | 1008.1 |
| 20260506102051 | 18 | 245 | 0.0 | 14.5 | 0.00 | 0.00 | 0.00 | 76 | 1008.0 |
| 20260506101556 | 18 | 199 | 0.0 | 14.5 | 0.00 | 0.00 | 0.00 | 76 | 1008.0 |
| 20260506101051 | 18 | 172 | 3.2 | 14.5 | 0.00 | 0.00 | 0.00 | 76 | 1008.0 |
| 20260506100551 | 18 | 205 | 1.6 | 14.5 | 0.00 | 0.00 | 0.00 | 75 | 1007.9 |
| 20260506100056 | 18 | 205 | 1.6 | 16.1 | 0.00 | 0.00 | 0.00 | 75 | 1007.8 |
| 20260506095551 | 18 | 184 | 1.6 | 16.1 | 0.00 | 0.00 | 0.00 | 75 | 1007.9 |
| 20260506095051 | 18 | 186 | 0.0 | 14.5 | 0.00 | 0.00 | 0.00 | 75 | 1007.8 |
| 20260506094555 | 18 | 232 | 0.0 | 8.0 | 0.00 | 0.00 | 0.00 | 75 | 1007.8 |
| 20260506094050 | 18 | 185 | 0.0 | 12.9 | 0.00 | 0.00 | 0.00 | 75 | 1007.8 |
| 20260506093550 | 18 | 0 | 0.0 | 12.9 | 0.00 | 0.00 | 0.00 | 74 | 1007.8 |
| 20260506093052 | 18 | 174 | 0.0 | 6.4 | 0.00 | 0.00 | 0.00 | 74 | 1007.9 |
| 20260506092551 | 18 | 0 | 0.0 | 6.4 | 0.00 | 0.00 | 0.00 | 74 | 1007.9 |
| 20260506092051 | 18 | 0 | 0.0 | 4.8 | 0.00 | 0.00 | 0.00 | 74 | 1007.9 |
| 20260506091554 | 18 | 0 | 0.0 | 17.7 | 0.00 | 0.00 | 0.00 | 73 | 1008.0 |
| 20260506091051 | 18 | 162 | 0.0 | 17.7 | 0.00 | 0.00 | 0.00 | 73 | 1008.1 |
| 20260506090552 | 18 | 0 | 0.0 | 6.4 | 0.00 | 0.00 | 0.00 | 73 | 1008.2 |
| 20260506090051 | 18 | 0 | 0.0 | 6.4 | 0.00 | 0.00 | 0.00 | 73 | 1008.1 |
| 20260506085551 | 18 | 0 | 0.0 | 6.4 | 0.00 | 0.00 | 0.00 | 73 | 1008.1 |
| 20260506085051 | 18 | 164 | 0.0 | 14.5 | 0.00 | 0.00 | 0.00 | 73 | 1008.0 |
| 20260506084554 | 18 | 0 | 0.0 | 14.5 | 0.00 | 0.00 | 0.00 | 72 | 1008.1 |
| 20260506084051 | 18 | 190 | 1.6 | 14.5 | 0.00 | 0.00 | 0.00 | 72 | 1008.1 |
| 20260506083550 | 18 | 217 | 0.0 | 8.0 | 0.00 | 0.00 | 0.00 | 72 | 1008.1 |
| 20260506083055 | 18 | 172 | 0.0 | 8.0 | 0.00 | 0.00 | 0.00 | 72 | 1008.1 |
| 20260506082552 | 18 | 0 | 0.0 | 1.6 | 0.00 | 0.00 | 0.00 | 72 | 1008.0 |
| 20260506082051 | 18 | 0 | 0.0 | 9.7 | 0.00 | 0.00 | 0.00 | 71 | 1008.0 |
| 20260506081557 | 18 | 0 | 0.0 | 9.7 | 0.00 | 0.00 | 0.00 | 71 | 1008.1 |
| 20260506081052 | 18 | 160 | 0.0 | 8.0 | 0.00 | 0.00 | 0.00 | 70 | 1008.0 |
| 20260506080551 | 18 | 0 | 0.0 | 8.0 | 0.00 | 0.00 | 0.00 | 69 | 1008.1 |
| 20260506073054 | 19 | 0 | 0.0 | 4.8 | 0.00 | 0.00 | 0.00 | 67 | 1008.3 |
| 20260506072551 | 19 | 0 | 0.0 | 4.8 | 0.00 | 0.00 | 0.00 | 66 | 1008.3 |
| 20260506072051 | 19 | 0 | 0.0 | 3.2 | 0.00 | 0.00 | 0.00 | 65 | 1008.4 |
| 20260506071554 | 20 | 0 | 0.0 | 4.8 | 0.00 | 0.00 | 0.00 | 65 | 1008.4 |
| 20260506071051 | 20 | 0 | 0.0 | 4.8 | 0.00 | 0.00 | 0.00 | 64 | 1008.3 |
| 20260506070551 | 20 | 0 | 0.0 | 4.8 | 0.00 | 0.00 | 0.00 | 64 | 1008.4 |
| 20260506062050 | 20 | 188 | 0.0 | 11.3 | 0.00 | 0.00 | 0.00 | 62 | 1008.9 |
| 20260506061555 | 20 | 186 | 0.0 | 6.4 | 0.00 | 0.00 | 0.00 | 62 | 1008.9 |